KSANKTSP

Guest
Details From KSAN - San Diego Intl
To KTSP - TEHACHAPI MUNI
Flight Number -
Tags generated
Created
Modified
Stats Distance 157 nm / 291 km
Max Altitude 14,800 ft / 4,511 m
Waypoints 3
Social Downloads 0
Likes 0
Share VATSIM

Download

Looking for another format? Having issues loading an existing format? Contact us
Advertisement - Login to hide

Notes

Basic altitude profile: - Ascent Rate: 2500ft/min - Ascent Speed: 250kts - Cruise Altitude: 35000ft - Cruise Speed: 420kts - Descent Rate: 1500ft/min - Descent Speed: 250kts Options: - Use NATs: yes - Use PACOTS: yes - Use low airways: yes - Use high airways: yes

Route

KSAN COVIN KTSP

ID Type Via Altitude (ft/m) Position (lat/lon) Dist (leg/tot) Name
O KSAN APT - 0 / 0 32.73356 / -117.18966 - / 0 nm San Diego Intl
COVIN FIX - 14,800 / 4,511 34.07685 / -117.89017 87 / 87 nm
O KTSP APT - 0 / 0 35.13500 / -118.43922 69 / 157 nm TEHACHAPI MUNI

Altitude Profile

Advertisement - Login to hide

KSAN

Details ICAO KSAN (SAN)
Name San Diego International Airport
Region United States
Timezone America/Los_Angeles (UTC-7.0)
Stats Elevation 17 ft / 5 m (AMSL)
Location 32.733500° -117.190000°
Runways 1
Magnetic Variation 11.453° E

METAR

KSAN 190951Z 33004KT 10SM CLR 18/05 A2999 RMK AO2 SLP157 T01780050

Decode

TAF

TAF AMD KSAN 190907Z 1909/2012 VRB04KT P6SM SKC FM192000 30011KT P6SM SKC FM200200 VRB05KT P6SM SKC

Decode

Departure Runways

ID Width Length Bearing (true/mag) Surface Threshold Overrun Markings Lighting
09 200 ft / 61 m 9,409 ft / 2,868 m 106.07° / 94.62° ASPHALT 1,007 ft / 307 m 394 ft / 120 m PREC-APP CENTERLINE EDGE THRESHOLD MALSR TDZ REIL-OMNI
27 200 ft / 61 m 9,409 ft / 2,868 m 286.09° / 274.63° ASPHALT 1,811 ft / 552 m 0 ft / 0 m PREC-APP CENTERLINE EDGE THRESHOLD MALS TDZ REIL-OMNI

KTSP

Details ICAO KTSP
Name TEHACHAPI MUNI
Region United States
Timezone America/Los_Angeles (UTC-7.0)
Stats Elevation 4,001 ft / 1,220 m (AMSL)
Location 35.135000° -118.439000°
Runways 1
Magnetic Variation 12.171° E

METAR

KTSP 191015Z AUTO 12003KT 10SM CLR 03/M08 A3022 RMK AO2

Decode

TAF

Not found

Destination Runways

ID Width Length Bearing (true/mag) Surface Threshold Overrun Markings Lighting
11 85 ft / 26 m 4,027 ft / 1,227 m 124.75° / 112.58° ASPHALT 305 ft / 93 m 0 ft / 0 m APP EDGE THRESHOLD
29 85 ft / 26 m 4,027 ft / 1,227 m 304.75° / 292.58° ASPHALT 384 ft / 117 m 0 ft / 0 m APP EDGE THRESHOLD

Popular Alternatives